Norwalk, Ohio
Current Conditions -  °F | °C
As of 12:12 PM on Sunday 21 Dec 2014 (Local Time) from KPCW Reporting Station
Few Clouds Few Clouds  
Wind Chill: 32°   Ceiling: Unl
Heat Index: 36°   Visibility: 10mi
Dew Point: 25°   Wind: 5mph
Humidity: 65%   Direction: NA
Pressure: 30.28"   Gusts: NA
Location:  41.24°N, 82.61°W
Report Text: KPCW 211712Z AUTO VRB04KT 10SM FEW021 02/M04 A3028 RMK AO2 $
Loading
Personal Weather Stations






























Interactive Weather Map New forecast layout! Learn more

10-Day Weather Forecast

Advertisements
Track Severe Weather on mobile